createdAt,value
2018-12-10T05:37:24.391Z,100017.13
2018-12-10T05:49:20.796Z,100037.45
2018-12-10T06:07:18.011Z,100072.91
2018-12-10T06:22:10.848Z,100084.81
2018-12-10T06:27:50.856Z,100092.64
2018-12-10T06:30:37.739Z,100087.39
2018-12-10T06:33:22.969Z,100097.44
2018-12-10T06:35:57.958Z,100102.20
2018-12-10T06:41:24.597Z,100095.21
2018-12-10T06:46:50.504Z,100111.81
2018-12-10T06:49:32.337Z,100112.25
2018-12-10T06:52:24.990Z,100117.50
2018-12-10T06:55:12.489Z,100114.00
2018-12-10T06:57:45.558Z,100112.25
2018-12-10T07:00:18.532Z,100124.97
2018-12-10T07:05:41.550Z,100127.55
2018-12-10T07:08:23.958Z,100135.89
2018-12-10T07:10:56.603Z,100138.86
2018-12-10T07:13:26.896Z,100148.03
2018-12-10T07:15:57.510Z,100151.95
2018-12-10T07:18:48.560Z,100148.42
2018-12-10T07:21:34.637Z,100157.59
2018-12-10T07:24:07.670Z,100159.35
2018-12-10T07:30:23.572Z,100162.40
2018-12-10T07:33:15.539Z,100171.11
2018-12-10T07:36:05.051Z,100167.16
2018-12-10T07:38:47.504Z,100175.91
2018-12-10T07:41:20.564Z,100179.79
2018-12-10T07:50:40.529Z,100196.89
2018-12-10T07:56:28.859Z,100216.52
2018-12-10T08:01:47.875Z,100218.70
2018-12-10T08:07:18.409Z,100224.83
2018-12-10T08:09:51.441Z,100230.94
2018-12-10T08:12:26.680Z,100238.78
2018-12-10T08:15:16.513Z,100238.82
2018-12-10T08:18:11.707Z,100239.26
2018-12-10T08:20:47.575Z,100255.39
2018-12-10T08:23:23.323Z,100254.08
2018-12-10T08:26:09.585Z,100252.77
2018-12-10T08:28:44.598Z,100249.27
2018-12-10T08:31:15.521Z,100256.66
2018-12-10T08:34:12.186Z,100256.66
2018-12-10T08:36:47.365Z,100261.47
2018-12-10T08:39:38.410Z,100254.85
2018-12-10T08:48:03.620Z,100268.85
2018-12-10T08:50:34.809Z,100279.40
2018-12-10T08:56:34.467Z,100275.51
2018-12-10T08:59:32.296Z,100274.97
2018-12-10T09:06:18.116Z,100282.80
2018-12-10T09:11:40.735Z,100276.22
2018-12-10T09:20:36.788Z,100279.30
2018-12-10T09:23:09.645Z,100277.98
2018-12-10T09:25:42.607Z,100280.59
2018-12-10T09:28:48.556Z,100284.03
2018-12-10T09:31:21.307Z,100286.66
2018-12-10T09:34:02.950Z,100282.19
2018-12-10T09:36:42.569Z,100284.78
2018-12-10T09:39:33.987Z,100291.74
2018-12-10T09:42:15.955Z,100291.73
2018-12-10T09:49:56.535Z,100300.44
2018-12-10T09:55:25.020Z,100206.75
2018-12-10T10:02:25.395Z,100293.00
2018-12-10T10:10:54.517Z,100305.53
2018-12-10T10:14:01.871Z,100309.47
2018-12-10T10:19:51.520Z,100304.38
2018-12-10T10:28:27.863Z,100318.67
2018-12-10T10:30:59.049Z,100309.34
2018-12-10T10:33:46.280Z,100311.07
2018-12-10T10:37:04.283Z,100306.98
2018-12-10T10:39:44.335Z,100309.15
2018-12-10T10:43:09.044Z,100312.32
2018-12-10T10:45:39.197Z,100314.59
2018-12-10T10:48:20.626Z,100312.39
2018-12-10T10:50:52.188Z,100299.33
2018-12-10T10:53:40.658Z,100314.30
2018-12-10T10:56:33.492Z,100302.38
2018-12-10T10:59:09.163Z,100305.45
2018-12-10T11:01:56.215Z,100303.62
2018-12-10T11:07:35.627Z,100309.67
2018-12-10T11:10:20.927Z,100316.27
2018-12-10T11:15:56.355Z,100308.66
2018-12-10T11:21:38.435Z,100308.52
2018-12-10T11:24:18.275Z,100297.29
2018-12-10T11:29:53.455Z,100298.47
2018-12-10T11:32:26.495Z,100307.30
2018-12-10T11:35:01.751Z,100305.84
2018-12-10T11:41:11.631Z,100303.70
2018-12-10T11:43:59.359Z,100315.19
2018-12-10T11:46:53.043Z,100312.18
2018-12-10T11:49:24.080Z,100069.91
2018-12-10T11:51:54.969Z,100307.72
2018-12-10T11:54:26.027Z,100313.91
2018-12-10T11:56:59.875Z,100302.02
2018-12-10T11:59:33.050Z,100302.05
2018-12-10T12:02:15.907Z,100313.00
2018-12-10T12:04:51.448Z,100316.13
2018-12-10T12:07:21.297Z,100323.49
2018-12-10T12:10:01.106Z,100310.88
2018-12-10T12:12:32.634Z,100308.75
2018-12-10T12:24:15.034Z,100303.12
2018-12-10T12:26:45.640Z,100297.93
2018-12-10T12:29:33.557Z,100300.55
2018-12-10T12:35:02.850Z,100303.66
2018-12-10T12:37:37.832Z,100299.69
2018-12-10T12:40:21.935Z,100304.89
2018-12-10T12:43:15.747Z,100300.91
2018-12-10T12:45:56.770Z,100309.69
2018-12-10T12:48:27.074Z,100313.44
2018-12-10T12:51:04.302Z,100308.37
2018-12-10T12:53:52.578Z,100300.11
2018-12-10T12:56:22.083Z,100300.17
2018-12-10T12:58:55.554Z,100302.81
2018-12-10T13:01:37.086Z,100307.67
2018-12-10T13:04:09.634Z,100309.05
2018-12-10T13:06:43.442Z,100305.98
2018-12-10T13:12:18.882Z,100308.16
2018-12-10T13:21:00.962Z,100311.56
2018-12-10T13:23:32.201Z,100307.63
2018-12-10T13:26:01.613Z,100314.23
2018-12-10T13:28:31.330Z,100315.10
2018-12-10T13:31:01.066Z,100313.80
2018-12-10T13:33:51.258Z,100316.03
2018-12-10T13:42:33.582Z,100327.41
2018-12-10T13:45:18.579Z,100319.06
2018-12-10T13:47:56.166Z,100317.78
2018-12-10T13:50:40.154Z,100315.55
2018-12-10T13:53:16.983Z,100306.80
2018-12-10T13:56:03.590Z,100323.86
2018-12-10T13:58:33.650Z,100317.30
2018-12-10T14:01:06.649Z,100325.22
2018-12-10T14:03:36.383Z,100324.36
2018-12-10T14:06:05.797Z,100338.84
2018-12-10T14:11:53.396Z,100325.36
2018-12-10T14:14:26.771Z,100328.86
2018-12-10T14:17:08.455Z,100326.27
2018-12-10T14:22:51.957Z,100323.17
2018-12-10T14:25:38.483Z,100326.30
2018-12-10T14:28:08.401Z,100330.70
2018-12-10T14:30:52.328Z,100337.23
2018-12-10T14:33:28.093Z,100335.92
2018-12-10T14:36:13.191Z,100338.95
2018-12-10T14:38:55.165Z,100338.98
2018-12-10T14:41:53.425Z,100333.73
2018-12-10T14:44:31.003Z,100342.92
2018-12-10T14:47:00.361Z,100341.14
2018-12-10T14:49:38.013Z,100345.91
2018-12-10T14:52:13.647Z,100344.20
2018-12-10T14:54:49.621Z,100341.58
2018-12-10T14:57:30.746Z,100342.05
2018-12-10T15:00:18.553Z,100350.69
2018-12-10T15:02:48.078Z,100352.95
2018-12-10T15:08:30.161Z,100351.28
2018-12-10T15:11:00.259Z,100351.73
2018-12-10T15:13:44.207Z,100364.42
2018-12-10T15:19:19.629Z,100357.91
2018-12-10T15:22:01.153Z,100363.55
2018-12-10T15:24:43.209Z,100366.20
2018-12-10T15:27:18.597Z,100366.63
2018-12-10T15:29:49.458Z,100364.44
2018-12-10T15:32:24.401Z,100371.41
2018-12-10T15:34:54.027Z,100374.05
2018-12-10T15:40:34.012Z,100375.36
2018-12-10T15:43:03.830Z,100377.96
2018-12-10T15:45:33.914Z,100377.98
2018-12-10T15:48:15.496Z,100386.72
2018-12-10T16:00:06.688Z,100388.44
2018-12-10T16:02:45.506Z,100384.08
2018-12-10T16:05:17.572Z,100376.23
2018-12-10T16:13:53.796Z,100376.20
2018-12-10T16:19:40.960Z,100372.27
2018-12-10T16:22:16.892Z,100364.45
2018-12-10T16:24:50.502Z,100364.45
2018-12-10T16:27:21.268Z,100364.00
2018-12-10T16:30:13.936Z,100364.42
2018-12-10T16:33:07.400Z,100350.02
2018-12-10T16:35:40.762Z,100360.95
2018-12-10T16:47:17.070Z,100357.44
2018-12-10T16:49:50.567Z,100353.09
2018-12-10T16:58:31.829Z,100349.16
2018-12-10T17:53:08.911Z,100349.14
2018-12-10T18:26:21.058Z,100321.64
2018-12-10T18:28:54.673Z,100332.99
2018-12-10T18:37:51.222Z,100332.13
2018-12-10T18:43:35.155Z,100324.27
2018-12-10T18:46:12.542Z,100320.32
2018-12-10T18:48:58.519Z,100316.81
2018-12-10T18:51:28.350Z,100322.52
2018-12-10T18:53:58.165Z,100325.13
2018-12-10T18:56:37.283Z,100325.53
2018-12-10T18:59:35.539Z,100323.38
2018-12-10T19:02:11.554Z,100335.16
2018-12-10T19:04:41.429Z,100332.53
2018-12-10T19:07:15.261Z,100326.84
2018-12-10T19:09:58.312Z,100340.84
2018-12-10T19:12:28.220Z,100325.97
2018-12-10T19:14:57.821Z,100333.86
2018-12-10T19:17:33.404Z,100328.62
2018-12-10T19:20:17.126Z,100329.92
2018-12-10T19:25:53.006Z,100327.76
2018-12-10T19:28:23.016Z,100319.00
2018-12-10T19:30:52.821Z,100322.94
2018-12-10T19:33:22.626Z,100312.45
2018-12-10T19:39:19.408Z,100330.78
2018-12-10T19:41:53.069Z,100327.31
2018-12-10T19:47:34.900Z,100307.20
2018-12-10T19:50:15.183Z,100317.23
2018-12-10T19:52:56.732Z,100311.99
2018-12-10T19:55:38.682Z,100312.89
2018-12-10T19:58:11.866Z,100310.72
2018-12-10T20:00:43.227Z,100307.20
2018-12-10T20:03:32.557Z,100316.38
2018-12-10T20:06:07.247Z,100307.64
2018-12-10T20:09:02.653Z,100297.61
2018-12-10T20:11:32.140Z,100314.23
2018-12-10T20:17:08.297Z,100295.89
2018-12-10T20:22:49.252Z,100285.84
2018-12-10T20:25:19.212Z,100282.79
2018-12-10T20:27:49.156Z,100280.63
2018-12-10T20:30:21.453Z,100279.71
2018-12-10T20:35:51.596Z,100272.73
2018-12-10T20:41:27.924Z,100272.31
2018-12-10T20:44:10.088Z,100275.38
2018-12-10T20:46:41.016Z,100274.47
2018-12-10T20:52:29.819Z,100271.88
2018-12-10T20:55:23.880Z,100264.02
2018-12-10T20:57:59.087Z,100274.93
2018-12-10T21:03:28.978Z,100270.10
2018-12-10T21:06:09.665Z,100267.93
2018-12-10T21:08:40.438Z,100267.07
2018-12-10T21:11:10.056Z,100269.70
2018-12-10T21:13:40.066Z,100272.30
2018-12-10T21:19:16.641Z,100277.98
2018-12-10T21:21:46.351Z,100273.64
2018-12-10T21:24:16.141Z,100274.92
2018-12-10T21:26:46.395Z,100274.50
2018-12-10T21:29:16.095Z,100269.27
2018-12-10T21:31:45.474Z,100274.06
2018-12-10T21:34:15.147Z,100276.27
2018-12-10T21:36:51.008Z,100260.55
2018-12-10T21:39:20.547Z,100261.84
2018-12-10T21:41:50.031Z,100258.80
2018-12-10T21:44:19.828Z,100247.87
2018-12-10T21:46:49.191Z,100262.30
2018-12-10T21:49:18.950Z,100252.23
2018-12-10T21:51:48.733Z,100253.11
2018-12-10T21:54:18.223Z,100250.94
2018-12-10T21:56:47.991Z,100252.25
2018-12-10T21:59:17.805Z,100255.73
2018-12-10T22:01:47.577Z,100260.98
2018-12-10T22:04:33.335Z,100260.55
2018-12-10T22:07:15.210Z,100260.09
2018-12-10T22:09:57.515Z,100263.61
2018-12-10T22:12:36.607Z,100263.60
2018-12-10T22:15:06.389Z,100267.95
2018-12-10T22:17:37.210Z,100269.69
2018-12-10T22:20:07.380Z,100277.55
2018-12-10T22:22:37.167Z,100276.69
2018-12-10T22:25:07.544Z,100282.79
2018-12-10T22:27:37.342Z,100274.52
2018-12-10T22:30:07.939Z,100285.41
2018-12-10T22:32:37.287Z,100274.94
2018-12-10T22:35:07.563Z,100272.31
2018-12-10T22:37:37.372Z,100273.18
2018-12-10T22:40:07.226Z,100264.91
2018-12-10T22:42:38.022Z,100264.03
2018-12-10T22:45:08.091Z,100260.09
2018-12-10T22:47:37.847Z,100271.02
2018-12-10T22:50:08.126Z,100268.84
2018-12-10T22:52:37.899Z,100267.51
2018-12-10T22:55:07.823Z,100264.91
2018-12-10T22:57:37.567Z,100268.84
2018-12-10T23:00:10.553Z,100276.25
2018-12-10T23:02:39.885Z,100270.14
2018-12-10T23:08:44.409Z,100268.84
2018-12-10T23:11:14.271Z,100268.39
2018-12-10T23:13:43.638Z,100264.04
2018-12-10T23:16:13.041Z,100273.20
2018-12-10T23:18:42.710Z,100275.83
2018-12-10T23:21:12.443Z,100270.58
2018-12-10T23:23:42.337Z,100277.11
2018-12-10T23:26:12.020Z,100275.81
2018-12-10T23:28:41.464Z,100278.86
2018-12-10T23:31:11.125Z,100284.98
2018-12-10T23:33:40.812Z,100282.80
2018-12-10T23:36:10.590Z,100276.69
2018-12-10T23:38:43.867Z,100283.22
2018-12-10T23:41:13.674Z,100281.49
2018-12-10T23:43:43.424Z,100274.49
2018-12-10T23:46:13.118Z,100279.73
2018-12-10T23:48:42.890Z,100279.31
2018-12-10T23:51:12.658Z,100282.79
2018-12-10T23:53:42.406Z,100280.61
2018-12-10T23:56:12.101Z,100283.67
2018-12-10T23:58:41.777Z,100283.67
